sensor_id;sensor_type;location;lat;lon;timestamp;pressure;altitude;pressure_sealevel;temperature
66403;BMP180;53212;52.112;5.144;2024-02-14T00:01:06;101204.20;;;8.10
66403;BMP180;53212;52.112;5.144;2024-02-14T00:03:34;101206.20;;;8.10
66403;BMP180;53212;52.112;5.144;2024-02-14T00:06:00;101208.80;;;8.10
66403;BMP180;53212;52.112;5.144;2024-02-14T00:08:26;101201.60;;;8.12
66403;BMP180;53212;52.112;5.144;2024-02-14T00:10:51;101199.20;;;8.18
66403;BMP180;53212;52.112;5.144;2024-02-14T00:13:17;101199.00;;;8.20
66403;BMP180;53212;52.112;5.144;2024-02-14T00:15:45;101191.20;;;8.20
66403;BMP180;53212;52.112;5.144;2024-02-14T00:18:14;101193.80;;;8.20
66403;BMP180;53212;52.112;5.144;2024-02-14T00:20:43;101185.20;;;8.20
66403;BMP180;53212;52.112;5.144;2024-02-14T00:23:09;101180.40;;;8.20
66403;BMP180;53212;52.112;5.144;2024-02-14T00:25:34;101188.20;;;8.22
66403;BMP180;53212;52.112;5.144;2024-02-14T00:28:00;101185.00;;;8.30
66403;BMP180;53212;52.112;5.144;2024-02-14T00:30:26;101184.40;;;8.30
66403;BMP180;53212;52.112;5.144;2024-02-14T00:32:52;101180.60;;;8.30
66403;BMP180;53212;52.112;5.144;2024-02-14T00:35:17;101173.80;;;8.30
66403;BMP180;53212;52.112;5.144;2024-02-14T00:37:43;101171.40;;;8.30
66403;BMP180;53212;52.112;5.144;2024-02-14T00:40:09;101180.60;;;8.36
66403;BMP180;53212;52.112;5.144;2024-02-14T00:42:35;101184.00;;;8.40
66403;BMP180;53212;52.112;5.144;2024-02-14T00:45:01;101177.60;;;8.40
66403;BMP180;53212;52.112;5.144;2024-02-14T00:47:28;101172.60;;;8.40
66403;BMP180;53212;52.112;5.144;2024-02-14T00:49:54;101165.60;;;8.40
66403;BMP180;53212;52.112;5.144;2024-02-14T00:52:19;101163.00;;;8.50
66403;BMP180;53212;52.112;5.144;2024-02-14T00:54:47;101166.60;;;8.50
66403;BMP180;53212;52.112;5.144;2024-02-14T00:57:12;101168.80;;;8.50
66403;BMP180;53212;52.112;5.144;2024-02-14T00:59:38;101172.60;;;8.56
66403;BMP180;53212;52.112;5.144;2024-02-14T01:02:04;101171.80;;;8.60
66403;BMP180;53212;52.112;5.144;2024-02-14T01:04:30;101167.40;;;8.60
66403;BMP180;53212;52.112;5.144;2024-02-14T01:06:55;101168.40;;;8.60
66403;BMP180;53212;52.112;5.144;2024-02-14T01:09:21;101164.80;;;8.60
66403;BMP180;53212;52.112;5.144;2024-02-14T01:11:47;101171.20;;;8.60
66403;BMP180;53212;52.112;5.144;2024-02-14T01:14:14;101169.20;;;8.60
66403;BMP180;53212;52.112;5.144;2024-02-14T01:16:44;101165.60;;;8.70
66403;BMP180;53212;52.112;5.144;2024-02-14T01:19:10;101174.20;;;8.70
66403;BMP180;53212;52.112;5.144;2024-02-14T01:21:36;101169.60;;;8.70
66403;BMP180;53212;52.112;5.144;2024-02-14T01:24:02;101167.40;;;8.70
66403;BMP180;53212;52.112;5.144;2024-02-14T01:26:28;101172.20;;;8.70
66403;BMP180;53212;52.112;5.144;2024-02-14T01:28:53;101177.00;;;8.76
66403;BMP180;53212;52.112;5.144;2024-02-14T01:31:18;101167.20;;;8.80
66403;BMP180;53212;52.112;5.144;2024-02-14T01:33:45;101170.60;;;8.80
66403;BMP180;53212;52.112;5.144;2024-02-14T01:36:11;101169.40;;;8.80
66403;BMP180;53212;52.112;5.144;2024-02-14T01:38:36;101167.00;;;8.80
66403;BMP180;53212;52.112;5.144;2024-02-14T01:41:05;101170.60;;;8.80
66403;BMP180;53212;52.112;5.144;2024-02-14T01:43:31;101162.00;;;8.80
66403;BMP180;53212;52.112;5.144;2024-02-14T01:46:07;101164.80;;;8.80
66403;BMP180;53212;52.112;5.144;2024-02-14T01:48:36;101162.20;;;8.88
66403;BMP180;53212;52.112;5.144;2024-02-14T01:51:08;101167.80;;;8.90
66403;BMP180;53212;52.112;5.144;2024-02-14T01:53:36;101170.20;;;8.90
66403;BMP180;53212;52.112;5.144;2024-02-14T01:56:03;101171.00;;;8.90
66403;BMP180;53212;52.112;5.144;2024-02-14T01:58:30;101169.40;;;8.90
66403;BMP180;53212;52.112;5.144;2024-02-14T02:00:56;101171.80;;;8.90
66403;BMP180;53212;52.112;5.144;2024-02-14T02:03:24;101175.40;;;8.98
66403;BMP180;53212;52.112;5.144;2024-02-14T02:05:52;101173.20;;;9.00
66403;BMP180;53212;52.112;5.144;2024-02-14T02:08:20;101171.40;;;9.00
66403;BMP180;53212;52.112;5.144;2024-02-14T02:10:46;101175.60;;;9.00
66403;BMP180;53212;52.112;5.144;2024-02-14T02:13:12;101177.60;;;9.00
66403;BMP180;53212;52.112;5.144;2024-02-14T02:15:38;101176.80;;;9.02
66403;BMP180;53212;52.112;5.144;2024-02-14T02:18:04;101182.20;;;9.08
66403;BMP180;53212;52.112;5.144;2024-02-14T02:20:32;101178.60;;;9.10
66403;BMP180;53212;52.112;5.144;2024-02-14T02:22:58;101180.80;;;9.10
66403;BMP180;53212;52.112;5.144;2024-02-14T02:25:25;101182.40;;;9.10
66403;BMP180;53212;52.112;5.144;2024-02-14T02:27:52;101184.60;;;9.10
66403;BMP180;53212;52.112;5.144;2024-02-14T02:30:22;101187.80;;;9.10
66403;BMP180;53212;52.112;5.144;2024-02-14T02:32:48;101189.20;;;9.12
66403;BMP180;53212;52.112;5.144;2024-02-14T02:35:13;101190.60;;;9.16
66403;BMP180;53212;52.112;5.144;2024-02-14T02:37:39;101182.60;;;9.18
66403;BMP180;53212;52.112;5.144;2024-02-14T02:40:05;101188.80;;;9.20
66403;BMP180;53212;52.112;5.144;2024-02-14T02:42:32;101188.80;;;9.20
66403;BMP180;53212;52.112;5.144;2024-02-14T02:44:58;101191.80;;;9.20
66403;BMP180;53212;52.112;5.144;2024-02-14T02:47:23;101195.20;;;9.20
66403;BMP180;53212;52.112;5.144;2024-02-14T02:49:49;101202.20;;;9.20
66403;BMP180;53212;52.112;5.144;2024-02-14T02:52:14;101190.40;;;9.20
66403;BMP180;53212;52.112;5.144;2024-02-14T02:54:40;101191.80;;;9.20
66403;BMP180;53212;52.112;5.144;2024-02-14T02:57:07;101191.40;;;9.20
66403;BMP180;53212;52.112;5.144;2024-02-14T02:59:35;101197.20;;;9.20
66403;BMP180;53212;52.112;5.144;2024-02-14T03:02:00;101195.20;;;9.20
66403;BMP180;53212;52.112;5.144;2024-02-14T03:04:26;101184.80;;;9.20
66403;BMP180;53212;52.112;5.144;2024-02-14T03:06:51;101195.20;;;9.20
66403;BMP180;53212;52.112;5.144;2024-02-14T03:09:17;101197.80;;;9.20
66403;BMP180;53212;52.112;5.144;2024-02-14T03:11:46;101200.80;;;9.22
66403;BMP180;53212;52.112;5.144;2024-02-14T03:14:15;101200.20;;;9.28
66403;BMP180;53212;52.112;5.144;2024-02-14T03:16:40;101194.80;;;9.30
66403;BMP180;53212;52.112;5.144;2024-02-14T03:19:06;101199.20;;;9.30
66403;BMP180;53212;52.112;5.144;2024-02-14T03:21:32;101205.60;;;9.30
66403;BMP180;53212;52.112;5.144;2024-02-14T03:24:03;101198.60;;;9.30
66403;BMP180;53212;52.112;5.144;2024-02-14T03:26:31;101201.00;;;9.30
66403;BMP180;53212;52.112;5.144;2024-02-14T03:29:00;101209.00;;;9.40
66403;BMP180;53212;52.112;5.144;2024-02-14T03:31:26;101197.60;;;9.40
66403;BMP180;53212;52.112;5.144;2024-02-14T03:33:52;101211.20;;;9.40
66403;BMP180;53212;52.112;5.144;2024-02-14T03:36:19;101204.60;;;9.40
66403;BMP180;53212;52.112;5.144;2024-02-14T03:38:44;101207.60;;;9.40
66403;BMP180;53212;52.112;5.144;2024-02-14T03:41:12;101213.20;;;9.40
66403;BMP180;53212;52.112;5.144;2024-02-14T03:43:38;101215.40;;;9.40
66403;BMP180;53212;52.112;5.144;2024-02-14T03:46:04;101216.00;;;9.40
66403;BMP180;53212;52.112;5.144;2024-02-14T03:48:30;101218.40;;;9.48
66403;BMP180;53212;52.112;5.144;2024-02-14T03:50:57;101224.40;;;9.50
66403;BMP180;53212;52.112;5.144;2024-02-14T03:53:25;101220.20;;;9.50
66403;BMP180;53212;52.112;5.144;2024-02-14T03:55:51;101217.60;;;9.48
66403;BMP180;53212;52.112;5.144;2024-02-14T03:58:18;101220.60;;;9.50
66403;BMP180;53212;52.112;5.144;2024-02-14T04:00:50;101217.80;;;9.50
66403;BMP180;53212;52.112;5.144;2024-02-14T04:03:17;101225.20;;;9.50
66403;BMP180;53212;52.112;5.144;2024-02-14T04:05:43;101222.00;;;9.50
66403;BMP180;53212;52.112;5.144;2024-02-14T04:08:08;101228.20;;;9.50
66403;BMP180;53212;52.112;5.144;2024-02-14T04:10:39;101238.20;;;9.50
66403;BMP180;53212;52.112;5.144;2024-02-14T04:13:05;101240.80;;;9.50
66403;BMP180;53212;52.112;5.144;2024-02-14T04:15:32;101237.00;;;9.54
66403;BMP180;53212;52.112;5.144;2024-02-14T04:17:57;101241.40;;;9.58
66403;BMP180;53212;52.112;5.144;2024-02-14T04:20:25;101248.60;;;9.60
66403;BMP180;53212;52.112;5.144;2024-02-14T04:22:51;101251.00;;;9.60
66403;BMP180;53212;52.112;5.144;2024-02-14T04:25:16;101253.20;;;9.60
66403;BMP180;53212;52.112;5.144;2024-02-14T04:27:42;101250.00;;;9.60
66403;BMP180;53212;52.112;5.144;2024-02-14T04:30:08;101257.20;;;9.60
66403;BMP180;53212;52.112;5.144;2024-02-14T04:32:34;101252.40;;;9.60
66403;BMP180;53212;52.112;5.144;2024-02-14T04:34:59;101258.60;;;9.60
66403;BMP180;53212;52.112;5.144;2024-02-14T04:37:25;101261.80;;;9.60
66403;BMP180;53212;52.112;5.144;2024-02-14T04:39:51;101258.80;;;9.68
66403;BMP180;53212;52.112;5.144;2024-02-14T04:42:16;101258.20;;;9.70
66403;BMP180;53212;52.112;5.144;2024-02-14T04:44:43;101260.20;;;9.70
66403;BMP180;53212;52.112;5.144;2024-02-14T04:47:09;101260.80;;;9.70
66403;BMP180;53212;52.112;5.144;2024-02-14T04:49:37;101261.20;;;9.70
66403;BMP180;53212;52.112;5.144;2024-02-14T04:52:04;101257.00;;;9.70
66403;BMP180;53212;52.112;5.144;2024-02-14T04:54:30;101264.80;;;9.70
66403;BMP180;53212;52.112;5.144;2024-02-14T04:56:55;101267.00;;;9.78
66403;BMP180;53212;52.112;5.144;2024-02-14T04:59:21;101263.00;;;9.78
66403;BMP180;53212;52.112;5.144;2024-02-14T05:01:46;101268.40;;;9.80
66403;BMP180;53212;52.112;5.144;2024-02-14T05:04:12;101278.40;;;9.80
66403;BMP180;53212;52.112;5.144;2024-02-14T05:06:39;101279.20;;;9.80
66403;BMP180;53212;52.112;5.144;2024-02-14T05:09:05;101284.00;;;9.80
66403;BMP180;53212;52.112;5.144;2024-02-14T05:11:31;101281.40;;;9.80
66403;BMP180;53212;52.112;5.144;2024-02-14T05:13:56;101284.20;;;9.80
66403;BMP180;53212;52.112;5.144;2024-02-14T05:16:22;101287.60;;;9.80
66403;BMP180;53212;52.112;5.144;2024-02-14T05:18:48;101282.60;;;9.80
66403;BMP180;53212;52.112;5.144;2024-02-14T05:21:14;101291.60;;;9.80
66403;BMP180;53212;52.112;5.144;2024-02-14T05:23:40;101292.80;;;9.80
66403;BMP180;53212;52.112;5.144;2024-02-14T05:26:06;101288.60;;;9.80
66403;BMP180;53212;52.112;5.144;2024-02-14T05:28:31;101289.60;;;9.82
66403;BMP180;53212;52.112;5.144;2024-02-14T05:30:59;101295.20;;;9.88
66403;BMP180;53212;52.112;5.144;2024-02-14T05:33:25;101293.60;;;9.90
66403;BMP180;53212;52.112;5.144;2024-02-14T05:35:51;101290.20;;;9.90
66403;BMP180;53212;52.112;5.144;2024-02-14T05:38:16;101286.60;;;9.90
66403;BMP180;53212;52.112;5.144;2024-02-14T05:40:46;101293.80;;;9.88
66403;BMP180;53212;52.112;5.144;2024-02-14T05:43:11;101292.80;;;9.90
66403;BMP180;53212;52.112;5.144;2024-02-14T05:45:37;101290.40;;;9.88
66403;BMP180;53212;52.112;5.144;2024-02-14T05:48:03;101294.20;;;9.90
66403;BMP180;53212;52.112;5.144;2024-02-14T05:50:29;101294.80;;;9.90
66403;BMP180;53212;52.112;5.144;2024-02-14T05:52:54;101293.40;;;9.90
66403;BMP180;53212;52.112;5.144;2024-02-14T05:55:22;101295.00;;;9.90
66403;BMP180;53212;52.112;5.144;2024-02-14T05:57:48;101299.60;;;9.90
66403;BMP180;53212;52.112;5.144;2024-02-14T06:00:14;101295.20;;;9.90
66403;BMP180;53212;52.112;5.144;2024-02-14T06:02:40;101304.00;;;9.90
66403;BMP180;53212;52.112;5.144;2024-02-14T06:05:06;101302.40;;;9.90
66403;BMP180;53212;52.112;5.144;2024-02-14T06:07:40;101308.20;;;9.90
66403;BMP180;53212;52.112;5.144;2024-02-14T06:10:09;101303.60;;;9.90
66403;BMP180;53212;52.112;5.144;2024-02-14T06:12:35;101316.60;;;9.90
66403;BMP180;53212;52.112;5.144;2024-02-14T06:15:01;101324.20;;;9.92
66403;BMP180;53212;52.112;5.144;2024-02-14T06:17:27;101321.00;;;9.94
66403;BMP180;53212;52.112;5.144;2024-02-14T06:19:54;101324.00;;;10.00
66403;BMP180;53212;52.112;5.144;2024-02-14T06:22:20;101323.40;;;10.00
66403;BMP180;53212;52.112;5.144;2024-02-14T06:24:47;101328.20;;;10.00
66403;BMP180;53212;52.112;5.144;2024-02-14T06:27:16;101331.40;;;10.00
66403;BMP180;53212;52.112;5.144;2024-02-14T06:29:43;101331.40;;;10.00
66403;BMP180;53212;52.112;5.144;2024-02-14T06:32:12;101332.20;;;10.00
66403;BMP180;53212;52.112;5.144;2024-02-14T06:34:38;101338.20;;;10.00
66403;BMP180;53212;52.112;5.144;2024-02-14T06:37:04;101335.60;;;10.00
66403;BMP180;53212;52.112;5.144;2024-02-14T06:39:29;101341.20;;;10.00
66403;BMP180;53212;52.112;5.144;2024-02-14T06:41:56;101348.80;;;10.00
66403;BMP180;53212;52.112;5.144;2024-02-14T06:44:23;101347.60;;;10.00
66403;BMP180;53212;52.112;5.144;2024-02-14T06:46:49;101343.00;;;10.00
66403;BMP180;53212;52.112;5.144;2024-02-14T06:49:16;101347.20;;;10.00
66403;BMP180;53212;52.112;5.144;2024-02-14T06:51:42;101350.80;;;10.00
66403;BMP180;53212;52.112;5.144;2024-02-14T06:54:08;101346.80;;;10.00
66403;BMP180;53212;52.112;5.144;2024-02-14T06:56:33;101346.00;;;10.00
66403;BMP180;53212;52.112;5.144;2024-02-14T06:58:59;101347.60;;;10.00
66403;BMP180;53212;52.112;5.144;2024-02-14T07:01:29;101353.20;;;10.00
66403;BMP180;53212;52.112;5.144;2024-02-14T07:03:55;101354.20;;;10.00
66403;BMP180;53212;52.112;5.144;2024-02-14T07:06:20;101350.20;;;10.00
66403;BMP180;53212;52.112;5.144;2024-02-14T07:08:46;101358.00;;;10.00
66403;BMP180;53212;52.112;5.144;2024-02-14T07:11:13;101369.60;;;10.06
66403;BMP180;53212;52.112;5.144;2024-02-14T07:13:38;101367.80;;;10.10
66403;BMP180;53212;52.112;5.144;2024-02-14T07:16:04;101370.60;;;10.10
66403;BMP180;53212;52.112;5.144;2024-02-14T07:18:30;101375.60;;;10.10
66403;BMP180;53212;52.112;5.144;2024-02-14T07:20:55;101370.60;;;10.10
66403;BMP180;53212;52.112;5.144;2024-02-14T07:23:21;101380.40;;;10.10
66403;BMP180;53212;52.112;5.144;2024-02-14T07:25:47;101375.40;;;10.20
66403;BMP180;53212;52.112;5.144;2024-02-14T07:28:12;101380.00;;;10.20
66403;BMP180;53212;52.112;5.144;2024-02-14T07:30:38;101376.40;;;10.20
66403;BMP180;53212;52.112;5.144;2024-02-14T07:33:04;101374.80;;;10.20
66403;BMP180;53212;52.112;5.144;2024-02-14T07:35:30;101373.60;;;10.20
66403;BMP180;53212;52.112;5.144;2024-02-14T07:37:55;101376.00;;;10.20
66403;BMP180;53212;52.112;5.144;2024-02-14T07:40:22;101378.00;;;10.30
66403;BMP180;53212;52.112;5.144;2024-02-14T07:42:48;101376.60;;;10.30
66403;BMP180;53212;52.112;5.144;2024-02-14T07:45:14;101372.80;;;10.30
66403;BMP180;53212;52.112;5.144;2024-02-14T07:47:40;101376.20;;;10.30
66403;BMP180;53212;52.112;5.144;2024-02-14T07:50:09;101373.20;;;10.30
66403;BMP180;53212;52.112;5.144;2024-02-14T07:52:34;101383.60;;;10.30
66403;BMP180;53212;52.112;5.144;2024-02-14T07:55:01;101382.00;;;10.30
66403;BMP180;53212;52.112;5.144;2024-02-14T07:57:27;101382.20;;;10.38
66403;BMP180;53212;52.112;5.144;2024-02-14T07:59:53;101392.60;;;10.40
66403;BMP180;53212;52.112;5.144;2024-02-14T08:02:19;101388.20;;;10.40
66403;BMP180;53212;52.112;5.144;2024-02-14T08:04:45;101393.00;;;10.40
66403;BMP180;53212;52.112;5.144;2024-02-14T08:07:11;101399.60;;;10.40
66403;BMP180;53212;52.112;5.144;2024-02-14T08:09:36;101396.60;;;10.40
66403;BMP180;53212;52.112;5.144;2024-02-14T08:12:04;101397.20;;;10.50
66403;BMP180;53212;52.112;5.144;2024-02-14T08:14:31;101394.40;;;10.50
66403;BMP180;53212;52.112;5.144;2024-02-14T08:16:57;101400.60;;;10.50
66403;BMP180;53212;52.112;5.144;2024-02-14T08:19:23;101399.00;;;10.50
66403;BMP180;53212;52.112;5.144;2024-02-14T08:21:49;101404.40;;;10.50
66403;BMP180;53212;52.112;5.144;2024-02-14T08:24:14;101405.40;;;10.60
66403;BMP180;53212;52.112;5.144;2024-02-14T08:26:39;101407.00;;;10.60
66403;BMP180;53212;52.112;5.144;2024-02-14T08:29:05;101399.60;;;10.60
66403;BMP180;53212;52.112;5.144;2024-02-14T08:31:30;101402.20;;;10.60
66403;BMP180;53212;52.112;5.144;2024-02-14T08:33:57;101404.00;;;10.60
66403;BMP180;53212;52.112;5.144;2024-02-14T08:36:24;101403.20;;;10.60
66403;BMP180;53212;52.112;5.144;2024-02-14T08:38:50;101408.20;;;10.66
66403;BMP180;53212;52.112;5.144;2024-02-14T08:41:16;101405.20;;;10.70
66403;BMP180;53212;52.112;5.144;2024-02-14T08:43:43;101406.60;;;10.70
66403;BMP180;53212;52.112;5.144;2024-02-14T08:46:10;101410.20;;;10.70
66403;BMP180;53212;52.112;5.144;2024-02-14T08:48:37;101413.60;;;10.72
66403;BMP180;53212;52.112;5.144;2024-02-14T08:51:08;101415.20;;;10.80
66403;BMP180;53212;52.112;5.144;2024-02-14T08:53:35;101412.00;;;10.80
66403;BMP180;53212;52.112;5.144;2024-02-14T08:56:01;101416.40;;;10.80
66403;BMP180;53212;52.112;5.144;2024-02-14T08:58:27;101422.80;;;10.80
66403;BMP180;53212;52.112;5.144;2024-02-14T09:00:52;101420.00;;;10.86
66403;BMP180;53212;52.112;5.144;2024-02-14T09:03:19;101413.40;;;10.90
66403;BMP180;53212;52.112;5.144;2024-02-14T09:05:45;101417.20;;;10.90
66403;BMP180;53212;52.112;5.144;2024-02-14T09:08:12;101424.20;;;10.90
66403;BMP180;53212;52.112;5.144;2024-02-14T09:10:38;101430.60;;;10.92
66403;BMP180;53212;52.112;5.144;2024-02-14T09:13:05;101429.80;;;10.90
66403;BMP180;53212;52.112;5.144;2024-02-14T09:15:33;101431.00;;;10.90
66403;BMP180;53212;52.112;5.144;2024-02-14T09:17:58;101436.00;;;11.00
66403;BMP180;53212;52.112;5.144;2024-02-14T09:20:25;101435.40;;;10.92
66403;BMP180;53212;52.112;5.144;2024-02-14T09:22:51;101436.20;;;10.92
66403;BMP180;53212;52.112;5.144;2024-02-14T09:25:16;101442.00;;;10.92
66403;BMP180;53212;52.112;5.144;2024-02-14T09:27:42;101441.20;;;11.00
66403;BMP180;53212;52.112;5.144;2024-02-14T09:30:09;101443.40;;;11.00
66403;BMP180;53212;52.112;5.144;2024-02-14T09:32:35;101447.20;;;11.00
66403;BMP180;53212;52.112;5.144;2024-02-14T09:35:01;101444.60;;;11.00
66403;BMP180;53212;52.112;5.144;2024-02-14T09:37:29;101441.80;;;11.00
66403;BMP180;53212;52.112;5.144;2024-02-14T09:39:54;101442.00;;;11.00
66403;BMP180;53212;52.112;5.144;2024-02-14T09:42:28;101439.60;;;10.90
66403;BMP180;53212;52.112;5.144;2024-02-14T09:44:59;101432.80;;;10.90
66403;BMP180;53212;52.112;5.144;2024-02-14T09:47:27;101437.00;;;11.00
66403;BMP180;53212;52.112;5.144;2024-02-14T09:49:56;101446.80;;;11.00
66403;BMP180;53212;52.112;5.144;2024-02-14T09:52:23;101442.60;;;11.08
66403;BMP180;53212;52.112;5.144;2024-02-14T09:54:49;101444.60;;;11.10
66403;BMP180;53212;52.112;5.144;2024-02-14T09:57:16;101449.80;;;11.14
66403;BMP180;53212;52.112;5.144;2024-02-14T09:59:44;101446.80;;;11.20
66403;BMP180;53212;52.112;5.144;2024-02-14T10:02:10;101455.00;;;11.10
66403;BMP180;53212;52.112;5.144;2024-02-14T10:04:36;101456.60;;;11.10
66403;BMP180;53212;52.112;5.144;2024-02-14T10:07:04;101449.00;;;11.10
66403;BMP180;53212;52.112;5.144;2024-02-14T10:09:30;101445.60;;;11.10
66403;BMP180;53212;52.112;5.144;2024-02-14T10:11:55;101445.60;;;11.10
66403;BMP180;53212;52.112;5.144;2024-02-14T10:14:23;101445.80;;;11.10
66403;BMP180;53212;52.112;5.144;2024-02-14T10:16:49;101445.60;;;11.10
66403;BMP180;53212;52.112;5.144;2024-02-14T10:19:16;101450.80;;;11.20
66403;BMP180;53212;52.112;5.144;2024-02-14T10:21:42;101441.20;;;11.24
66403;BMP180;53212;52.112;5.144;2024-02-14T10:24:08;101446.40;;;11.30
66403;BMP180;53212;52.112;5.144;2024-02-14T10:26:37;101456.40;;;11.40
66403;BMP180;53212;52.112;5.144;2024-02-14T10:29:03;101459.80;;;11.40
66403;BMP180;53212;52.112;5.144;2024-02-14T10:31:28;101465.80;;;11.52
66403;BMP180;53212;52.112;5.144;2024-02-14T10:33:55;101461.00;;;11.70
66403;BMP180;53212;52.112;5.144;2024-02-14T10:36:22;101459.60;;;11.80
66403;BMP180;53212;52.112;5.144;2024-02-14T10:38:50;101460.80;;;11.80
66403;BMP180;53212;52.112;5.144;2024-02-14T10:41:16;101465.20;;;11.90
66403;BMP180;53212;52.112;5.144;2024-02-14T10:43:42;101466.80;;;11.90
66403;BMP180;53212;52.112;5.144;2024-02-14T10:46:22;101461.80;;;11.90
66403;BMP180;53212;52.112;5.144;2024-02-14T10:48:53;101457.40;;;11.90
66403;BMP180;53212;52.112;5.144;2024-02-14T10:51:21;101458.00;;;12.00
66403;BMP180;53212;52.112;5.144;2024-02-14T10:53:49;101467.00;;;12.00
66403;BMP180;53212;52.112;5.144;2024-02-14T10:56:18;101464.20;;;11.90
66403;BMP180;53212;52.112;5.144;2024-02-14T10:58:48;101466.40;;;11.90
66403;BMP180;53212;52.112;5.144;2024-02-14T11:01:14;101459.00;;;11.90
66403;BMP180;53212;52.112;5.144;2024-02-14T11:03:43;101459.20;;;11.90
66403;BMP180;53212;52.112;5.144;2024-02-14T11:06:16;101459.00;;;11.90
66403;BMP180;53212;52.112;5.144;2024-02-14T11:08:58;101457.20;;;12.00
66403;BMP180;53212;52.112;5.144;2024-02-14T11:11:29;101454.20;;;11.96
66403;BMP180;53212;52.112;5.144;2024-02-14T11:13:56;101444.60;;;11.96
66403;BMP180;53212;52.112;5.144;2024-02-14T11:16:26;101454.80;;;12.00
66403;BMP180;53212;52.112;5.144;2024-02-14T11:19:13;101455.00;;;12.00
66403;BMP180;53212;52.112;5.144;2024-02-14T11:21:42;101453.40;;;12.00
66403;BMP180;53212;52.112;5.144;2024-02-14T11:24:11;101441.60;;;12.00
66403;BMP180;53212;52.112;5.144;2024-02-14T11:26:50;101443.60;;;12.00
66403;BMP180;53212;52.112;5.144;2024-02-14T11:29:21;101441.60;;;12.00
66403;BMP180;53212;52.112;5.144;2024-02-14T11:31:47;101438.40;;;11.96
66403;BMP180;53212;52.112;5.144;2024-02-14T11:34:14;101445.80;;;11.98
66403;BMP180;53212;52.112;5.144;2024-02-14T11:36:42;101441.60;;;11.90
66403;BMP180;53212;52.112;5.144;2024-02-14T11:39:08;101435.20;;;11.90
66403;BMP180;53212;52.112;5.144;2024-02-14T11:41:34;101441.40;;;11.90
66403;BMP180;53212;52.112;5.144;2024-02-14T11:44:04;101440.60;;;11.98
66403;BMP180;53212;52.112;5.144;2024-02-14T11:46:35;101440.40;;;12.00
66403;BMP180;53212;52.112;5.144;2024-02-14T11:49:05;101431.80;;;12.00
66403;BMP180;53212;52.112;5.144;2024-02-14T11:51:33;101435.20;;;12.00
66403;BMP180;53212;52.112;5.144;2024-02-14T11:54:01;101439.20;;;12.00
66403;BMP180;53212;52.112;5.144;2024-02-14T11:56:33;101431.00;;;12.10
66403;BMP180;53212;52.112;5.144;2024-02-14T11:59:01;101425.40;;;12.10
66403;BMP180;53212;52.112;5.144;2024-02-14T12:01:34;101430.80;;;12.20
66403;BMP180;53212;52.112;5.144;2024-02-14T12:04:01;101430.00;;;12.20
66403;BMP180;53212;52.112;5.144;2024-02-14T12:06:29;101433.00;;;12.20
66403;BMP180;53212;52.112;5.144;2024-02-14T12:09:00;101439.40;;;12.20
66403;BMP180;53212;52.112;5.144;2024-02-14T12:11:41;101424.40;;;12.20
66403;BMP180;53212;52.112;5.144;2024-02-14T12:14:09;101428.60;;;12.20
66403;BMP180;53212;52.112;5.144;2024-02-14T12:16:36;101433.00;;;12.20
66403;BMP180;53212;52.112;5.144;2024-02-14T12:19:15;101432.80;;;12.20
66403;BMP180;53212;52.112;5.144;2024-02-14T12:21:42;101436.80;;;12.10
66403;BMP180;53212;52.112;5.144;2024-02-14T12:24:12;101438.20;;;12.08
66403;BMP180;53212;52.112;5.144;2024-02-14T12:26:40;101443.00;;;12.00
66403;BMP180;53212;52.112;5.144;2024-02-14T12:29:07;101433.20;;;12.00
66403;BMP180;53212;52.112;5.144;2024-02-14T12:31:34;101428.60;;;12.00
66403;BMP180;53212;52.112;5.144;2024-02-14T12:34:03;101430.00;;;12.00
66403;BMP180;53212;52.112;5.144;2024-02-14T12:36:33;101429.00;;;12.00
66403;BMP180;53212;52.112;5.144;2024-02-14T12:39:00;101433.20;;;12.00
66403;BMP180;53212;52.112;5.144;2024-02-14T12:41:30;101434.60;;;12.00
66403;BMP180;53212;52.112;5.144;2024-02-14T12:43:56;101435.40;;;12.00
66403;BMP180;53212;52.112;5.144;2024-02-14T12:46:22;101433.00;;;12.00
66403;BMP180;53212;52.112;5.144;2024-02-14T12:48:48;101432.60;;;12.00
66403;BMP180;53212;52.112;5.144;2024-02-14T12:51:16;101431.80;;;12.00
66403;BMP180;53212;52.112;5.144;2024-02-14T12:53:42;101436.40;;;12.00
66403;BMP180;53212;52.112;5.144;2024-02-14T12:56:08;101431.00;;;12.00
66403;BMP180;53212;52.112;5.144;2024-02-14T12:58:34;101426.80;;;12.00
66403;BMP180;53212;52.112;5.144;2024-02-14T13:01:00;101420.20;;;12.00
66403;BMP180;53212;52.112;5.144;2024-02-14T13:03:27;101418.00;;;12.02
66403;BMP180;53212;52.112;5.144;2024-02-14T13:05:55;101419.80;;;12.10
66403;BMP180;53212;52.112;5.144;2024-02-14T13:08:20;101420.60;;;12.10
66403;BMP180;53212;52.112;5.144;2024-02-14T13:10:46;101421.20;;;12.10
66403;BMP180;53212;52.112;5.144;2024-02-14T13:13:13;101422.40;;;12.14
66403;BMP180;53212;52.112;5.144;2024-02-14T13:15:40;101418.20;;;12.20
66403;BMP180;53212;52.112;5.144;2024-02-14T13:18:06;101418.20;;;12.20
66403;BMP180;53212;52.112;5.144;2024-02-14T13:20:31;101416.80;;;12.20
66403;BMP180;53212;52.112;5.144;2024-02-14T13:22:57;101407.60;;;12.20
66403;BMP180;53212;52.112;5.144;2024-02-14T13:25:23;101411.00;;;12.20
66403;BMP180;53212;52.112;5.144;2024-02-14T13:27:49;101413.40;;;12.20
66403;BMP180;53212;52.112;5.144;2024-02-14T13:30:14;101411.60;;;12.20
66403;BMP180;53212;52.112;5.144;2024-02-14T13:32:40;101405.80;;;12.30
66403;BMP180;53212;52.112;5.144;2024-02-14T13:35:06;101406.40;;;12.30
66403;BMP180;53212;52.112;5.144;2024-02-14T13:37:33;101408.40;;;12.30
66403;BMP180;53212;52.112;5.144;2024-02-14T13:39:59;101406.20;;;12.30
66403;BMP180;53212;52.112;5.144;2024-02-14T13:42:24;101397.40;;;12.30
66403;BMP180;53212;52.112;5.144;2024-02-14T13:44:50;101402.20;;;12.30
66403;BMP180;53212;52.112;5.144;2024-02-14T13:47:18;101402.40;;;12.30
66403;BMP180;53212;52.112;5.144;2024-02-14T13:49:44;101404.20;;;12.30
66403;BMP180;53212;52.112;5.144;2024-02-14T13:52:10;101400.20;;;12.30
66403;BMP180;53212;52.112;5.144;2024-02-14T13:54:35;101401.60;;;12.30
66403;BMP180;53212;52.112;5.144;2024-02-14T13:57:01;101403.20;;;12.30
66403;BMP180;53212;52.112;5.144;2024-02-14T13:59:28;101401.80;;;12.30